createdAt,value
2018-06-24T00:02:16.974Z,16.45
2018-06-24T00:04:46.009Z,16.49
2018-06-24T00:07:15.125Z,16.20
2018-06-24T00:09:44.363Z,16.43
2018-06-24T00:12:13.716Z,16.51
2018-06-24T00:14:42.572Z,16.34
2018-06-24T00:17:11.412Z,16.06
2018-06-24T00:19:40.514Z,16.25
2018-06-24T00:22:09.494Z,16.33
2018-06-24T00:24:40.226Z,16.43
2018-06-24T00:27:10.975Z,16.43
2018-06-24T00:29:39.861Z,16.40
2018-06-24T00:32:08.539Z,16.10
2018-06-24T00:34:37.161Z,16.05
2018-06-24T00:37:05.994Z,16.07
2018-06-24T00:39:34.672Z,16.01
2018-06-24T00:42:03.609Z,15.97
2018-06-24T00:44:33.053Z,16.05
2018-06-24T00:47:02.313Z,9.60
2018-06-24T00:49:31.037Z,15.86
2018-06-24T00:51:59.680Z,15.99
2018-06-24T00:54:28.392Z,15.99
2018-06-24T00:56:59.301Z,9.57
2018-06-24T00:59:39.379Z,16.00
2018-06-24T01:02:09.024Z,16.16
2018-06-24T01:04:37.762Z,16.10
2018-06-24T01:07:06.538Z,16.05
2018-06-24T01:09:35.441Z,15.85
2018-06-24T01:12:04.120Z,15.59
2018-06-24T01:14:33.432Z,15.65
2018-06-24T01:17:02.113Z,15.62
2018-06-24T01:19:30.992Z,15.60
2018-06-24T01:21:59.664Z,15.46
2018-06-24T01:24:28.358Z,15.57
2018-06-24T01:26:57.195Z,15.31
2018-06-24T01:29:25.840Z,15.24
2018-06-24T01:31:54.533Z,15.03
2018-06-24T01:34:23.129Z,15.09
2018-06-24T01:36:51.847Z,15.14
2018-06-24T01:39:21.676Z,15.37
2018-06-24T01:41:50.668Z,15.21
2018-06-24T01:44:19.682Z,15.28
2018-06-24T01:46:48.387Z,15.38
2018-06-24T01:49:17.023Z,15.44
2018-06-24T01:51:45.761Z,15.58
2018-06-24T01:54:14.398Z,15.51
2018-06-24T01:56:43.333Z,15.44
2018-06-24T01:59:12.035Z,15.66
2018-06-24T02:01:40.807Z,15.55
2018-06-24T02:04:10.149Z,15.56
2018-06-24T02:06:38.796Z,15.28
2018-06-24T02:09:10.901Z,15.26
2018-06-24T02:11:40.079Z,15.41
2018-06-24T02:14:08.857Z,15.46
2018-06-24T02:16:38.156Z,15.35
2018-06-24T02:19:07.714Z,15.03
2018-06-24T02:21:37.391Z,15.06
2018-06-24T02:24:06.093Z,14.85
2018-06-24T02:26:35.734Z,6.69
2018-06-24T02:29:04.425Z,14.98
2018-06-24T02:31:33.077Z,14.91
2018-06-24T02:34:02.285Z,15.02
2018-06-24T02:36:30.931Z,15.00
2018-06-24T02:38:59.662Z,15.05
2018-06-24T02:41:29.435Z,15.24
2018-06-24T02:43:58.325Z,14.97
2018-06-24T02:46:27.295Z,15.07
2018-06-24T02:48:56.356Z,15.06
2018-06-24T02:51:27.059Z,14.93
2018-06-24T02:53:57.064Z,14.96
2018-06-24T02:56:25.673Z,14.76
2018-06-24T02:58:55.397Z,14.40
2018-06-24T03:01:24.204Z,14.53
2018-06-24T03:03:52.849Z,14.38
2018-06-24T03:06:21.512Z,14.47
2018-06-24T03:08:50.299Z,14.47
2018-06-24T03:11:18.959Z,14.39
2018-06-24T03:13:47.967Z,14.42
2018-06-24T03:16:17.343Z,14.59
2018-06-24T03:18:46.268Z,14.68
2018-06-24T03:21:14.928Z,14.31
2018-06-24T03:23:43.822Z,14.43
2018-06-24T03:26:12.665Z,14.44
2018-06-24T03:28:41.295Z,14.47
2018-06-24T03:31:09.952Z,14.56
2018-06-24T03:33:38.643Z,14.49
2018-06-24T03:36:07.302Z,14.54
2018-06-24T03:38:35.911Z,14.42
2018-06-24T03:41:04.784Z,14.09
2018-06-24T03:43:33.386Z,14.18
2018-06-24T03:46:03.176Z,13.86
2018-06-24T03:48:31.799Z,14.19
2018-06-24T03:51:00.556Z,14.40
2018-06-24T03:53:29.172Z,14.53
2018-06-24T03:55:57.988Z,14.50
2018-06-24T03:58:27.977Z,14.43
2018-06-24T04:00:56.594Z,14.35
2018-06-24T04:03:25.455Z,14.18
2018-06-24T04:05:54.274Z,14.09
2018-06-24T04:08:22.960Z,14.02
2018-06-24T04:10:52.194Z,14.05
2018-06-24T04:13:21.384Z,14.19
2018-06-24T04:15:50.312Z,14.06
2018-06-24T04:18:19.010Z,14.11
2018-06-24T04:20:48.670Z,14.11
2018-06-24T04:23:21.210Z,13.75
2018-06-24T04:25:49.916Z,13.89
2018-06-24T04:28:18.577Z,14.29
2018-06-24T04:30:47.605Z,14.53
2018-06-24T04:33:17.324Z,14.23
2018-06-24T04:35:46.056Z,14.37
2018-06-24T04:38:14.780Z,14.57
2018-06-24T04:40:43.877Z,14.78
2018-06-24T04:43:13.556Z,14.98
2018-06-24T04:45:42.403Z,14.82
2018-06-24T04:48:11.190Z,14.73
2018-06-24T04:50:40.216Z,14.75
2018-06-24T04:53:09.462Z,15.09
2018-06-24T04:55:38.253Z,15.40
2018-06-24T04:58:07.738Z,15.54
2018-06-24T05:00:37.258Z,15.86
2018-06-24T05:03:06.458Z,15.48
2018-06-24T05:05:35.217Z,15.47
2018-06-24T05:08:04.450Z,15.55
2018-06-24T05:10:33.580Z,15.80
2018-06-24T05:13:03.228Z,15.88
2018-06-24T05:15:33.308Z,15.87
2018-06-24T05:18:03.147Z,16.01
2018-06-24T05:20:31.975Z,15.64
2018-06-24T05:23:00.760Z,15.87
2018-06-24T05:25:30.504Z,16.04
2018-06-24T05:28:00.454Z,16.17
2018-06-24T05:30:30.414Z,16.27
2018-06-24T05:33:04.310Z,16.18
2018-06-24T05:35:33.414Z,15.91
2018-06-24T05:38:02.350Z,16.31
2018-06-24T05:40:31.304Z,16.53
2018-06-24T05:43:01.091Z,16.63
2018-06-24T05:45:30.108Z,17.14
2018-06-24T05:47:59.356Z,17.41
2018-06-24T05:50:28.375Z,17.28
2018-06-24T05:52:58.325Z,17.41
2018-06-24T05:55:27.755Z,17.49
2018-06-24T05:57:56.803Z,17.40
2018-06-24T06:00:26.534Z,17.29
2018-06-24T06:02:55.564Z,17.40
2018-06-24T06:05:24.774Z,17.00
2018-06-24T06:07:54.832Z,17.24
2018-06-24T06:10:23.945Z,17.35
2018-06-24T06:12:52.881Z,17.16
2018-06-24T06:15:26.145Z,17.62
2018-06-24T06:17:55.529Z,17.63
2018-06-24T06:20:24.581Z,17.12
2018-06-24T06:22:54.815Z,16.84
2018-06-24T06:25:23.732Z,16.54
2018-06-24T06:27:53.074Z,16.72
2018-06-24T06:30:21.921Z,16.75
2018-06-24T06:32:50.732Z,16.63
2018-06-24T06:35:19.664Z,16.67
2018-06-24T06:37:49.081Z,16.43
2018-06-24T06:40:18.586Z,16.37
2018-06-24T06:42:49.904Z,16.56
2018-06-24T06:45:19.166Z,16.50
2018-06-24T06:47:47.820Z,16.63
2018-06-24T06:50:17.047Z,17.03
2018-06-24T06:52:46.338Z,17.11
2018-06-24T06:55:15.325Z,16.98
2018-06-24T06:57:45.322Z,16.94
2018-06-24T07:00:15.073Z,17.10
2018-06-24T07:02:44.085Z,16.90
2018-06-24T07:05:14.794Z,17.17
2018-06-24T07:07:44.284Z,17.08
2018-06-24T07:10:13.663Z,17.13
2018-06-24T07:12:43.674Z,17.02
2018-06-24T07:15:12.557Z,16.73
2018-06-24T07:17:43.315Z,16.93
2018-06-24T07:20:12.320Z,17.33
2018-06-24T07:22:41.885Z,17.39
2018-06-24T07:25:12.117Z,17.06
2018-06-24T07:27:51.496Z,16.86
2018-06-24T07:30:20.936Z,16.85
2018-06-24T07:32:50.016Z,16.93
2018-06-24T07:35:18.953Z,17.15
2018-06-24T07:37:52.913Z,16.90
2018-06-24T07:40:24.710Z,16.90
2018-06-24T07:43:00.764Z,16.92
2018-06-24T07:45:30.615Z,16.83
2018-06-24T07:48:03.778Z,16.97
2018-06-24T07:50:33.708Z,17.05
2018-06-24T07:53:02.360Z,16.65
2018-06-24T07:55:31.008Z,17.03
2018-06-24T07:57:59.970Z,17.18
2018-06-24T08:00:28.846Z,17.42
2018-06-24T08:02:57.587Z,17.08
2018-06-24T08:05:26.200Z,16.97
2018-06-24T08:07:54.852Z,17.20
2018-06-24T08:10:23.429Z,17.26
2018-06-24T08:12:52.097Z,17.45
2018-06-24T08:15:20.695Z,17.71
2018-06-24T08:17:49.507Z,17.84
2018-06-24T08:20:18.452Z,18.18
2018-06-24T08:22:47.187Z,18.40
2018-06-24T08:25:16.854Z,18.33
2018-06-24T08:27:45.491Z,18.08
2018-06-24T08:30:14.155Z,18.23
2018-06-24T08:32:42.775Z,18.68
2018-06-24T08:35:11.429Z,18.64
2018-06-24T08:37:44.740Z,18.69
2018-06-24T08:40:14.883Z,18.92
2018-06-24T08:42:43.806Z,18.69
2018-06-24T08:45:15.425Z,18.66
2018-06-24T08:47:45.469Z,18.88
2018-06-24T08:50:14.077Z,18.72
2018-06-24T08:52:42.741Z,19.13
2018-06-24T08:55:11.567Z,19.48
2018-06-24T08:57:40.787Z,19.68
2018-06-24T09:00:10.630Z,19.63
2018-06-24T09:02:39.401Z,19.45
2018-06-24T09:05:08.913Z,19.34
2018-06-24T09:07:37.533Z,19.24
2018-06-24T09:10:06.198Z,19.63
2018-06-24T09:12:34.944Z,19.89
2018-06-24T09:15:03.820Z,19.77
2018-06-24T09:17:32.582Z,19.74
2018-06-24T09:20:06.165Z,19.27
2018-06-24T09:22:36.551Z,19.33
2018-06-24T09:25:06.060Z,19.00
2018-06-24T09:27:34.815Z,19.32
2018-06-24T09:30:05.927Z,19.50
2018-06-24T09:32:35.175Z,20.28
2018-06-24T09:35:03.923Z,19.87
2018-06-24T09:37:32.800Z,20.09
2018-06-24T09:40:01.639Z,20.42
2018-06-24T09:42:30.474Z,20.66
2018-06-24T09:45:07.497Z,20.51
2018-06-24T09:47:37.579Z,20.50
2018-06-24T09:50:06.852Z,20.05
2018-06-24T09:52:35.545Z,19.80
2018-06-24T09:55:04.300Z,20.10
2018-06-24T09:57:34.981Z,19.89
2018-06-24T10:00:03.692Z,20.24
2018-06-24T10:02:32.368Z,20.77
2018-06-24T10:05:01.345Z,20.73
2018-06-24T10:07:29.937Z,20.59
2018-06-24T10:09:58.585Z,20.33
2018-06-24T10:12:27.202Z,20.12
2018-06-24T10:14:56.323Z,20.04
2018-06-24T10:17:25.217Z,20.40
2018-06-24T10:19:53.841Z,20.71
2018-06-24T10:22:22.588Z,20.80
2018-06-24T10:24:51.234Z,20.79
2018-06-24T10:27:19.854Z,20.52
2018-06-24T10:29:48.498Z,20.31
2018-06-24T10:32:17.090Z,20.65
2018-06-24T10:34:45.746Z,20.46
2018-06-24T10:37:30.911Z,20.83
2018-06-24T10:40:00.248Z,20.84
2018-06-24T10:42:28.860Z,20.73
2018-06-24T10:44:57.503Z,20.48
2018-06-24T10:47:26.132Z,20.13
2018-06-24T10:49:54.780Z,20.03
2018-06-24T10:52:24.383Z,20.45
2018-06-24T10:54:57.224Z,20.27
2018-06-24T10:57:25.826Z,20.12
2018-06-24T10:59:55.509Z,19.78
2018-06-24T11:02:24.115Z,19.80
2018-06-24T11:04:52.825Z,20.16
2018-06-24T11:07:21.464Z,20.19
2018-06-24T11:09:50.183Z,20.41
2018-06-24T11:12:18.841Z,20.71
2018-06-24T11:14:47.484Z,20.43
2018-06-24T11:17:18.215Z,20.43
2018-06-24T11:19:46.938Z,20.07
2018-06-24T11:22:15.616Z,20.20
2018-06-24T11:24:44.621Z,20.21
2018-06-24T11:27:13.235Z,20.49
2018-06-24T11:29:41.877Z,20.60
2018-06-24T11:32:10.544Z,20.67
2018-06-24T11:34:39.172Z,20.70
2018-06-24T11:37:11.756Z,20.80
2018-06-24T11:39:40.420Z,20.59
2018-06-24T11:42:09.105Z,20.19
2018-06-24T11:44:38.771Z,20.40
2018-06-24T11:47:07.951Z,20.64
2018-06-24T11:49:36.597Z,20.22
2018-06-24T11:52:05.422Z,20.39
2018-06-24T11:54:34.247Z,20.20
2018-06-24T11:57:04.024Z,20.12
2018-06-24T11:59:32.645Z,19.96
2018-06-24T12:02:01.317Z,19.96
2018-06-24T12:04:32.216Z,19.93
2018-06-24T12:07:01.012Z,19.90
2018-06-24T12:09:29.770Z,20.03
2018-06-24T12:12:00.654Z,20.06
2018-06-24T12:14:30.143Z,19.95
2018-06-24T12:16:59.287Z,20.31
2018-06-24T12:19:33.428Z,20.57
2018-06-24T12:22:02.289Z,20.77
2018-06-24T12:24:31.030Z,20.71
2018-06-24T12:27:01.139Z,20.43
2018-06-24T12:29:30.033Z,20.64
2018-06-24T12:31:58.912Z,20.47
2018-06-24T12:34:27.781Z,20.49
2018-06-24T12:36:56.905Z,20.56
2018-06-24T12:39:30.606Z,20.49
2018-06-24T12:42:00.376Z,20.58
2018-06-24T12:44:29.249Z,20.71
2018-06-24T12:46:58.955Z,19.89
2018-06-24T12:49:27.676Z,19.97
2018-06-24T12:51:56.625Z,20.29
2018-06-24T12:54:26.208Z,20.70
2018-06-24T12:56:55.164Z,20.52
2018-06-24T12:59:25.382Z,20.65
2018-06-24T13:01:55.144Z,20.65
2018-06-24T13:04:23.929Z,20.94
2018-06-24T13:06:52.908Z,20.94
2018-06-24T13:09:21.673Z,20.82
2018-06-24T13:11:50.701Z,20.71
2018-06-24T13:14:19.315Z,20.70
2018-06-24T13:16:48.719Z,20.55
2018-06-24T13:19:17.666Z,20.49
2018-06-24T13:21:47.350Z,20.39
2018-06-24T13:24:20.301Z,20.20
2018-06-24T13:26:49.264Z,20.37
2018-06-24T13:29:17.948Z,20.81
2018-06-24T13:31:46.658Z,20.73
2018-06-24T13:34:15.675Z,20.93
2018-06-24T13:36:45.420Z,21.00
2018-06-24T13:39:14.590Z,20.50
2018-06-24T13:41:43.317Z,20.35
2018-06-24T13:44:13.094Z,20.68
2018-06-24T13:46:41.757Z,20.61
2018-06-24T13:49:10.452Z,20.47
2018-06-24T13:51:39.217Z,20.57
2018-06-24T13:54:08.064Z,20.24
2018-06-24T13:56:36.697Z,19.87
2018-06-24T13:59:06.500Z,19.72
2018-06-24T14:01:35.092Z,19.73
2018-06-24T14:04:03.873Z,19.72
2018-06-24T14:06:32.515Z,20.02
2018-06-24T14:09:01.176Z,20.39
2018-06-24T14:11:29.840Z,20.74
2018-06-24T14:13:58.570Z,20.55
2018-06-24T14:16:27.183Z,20.31
2018-06-24T14:18:55.829Z,20.34
2018-06-24T14:21:25.071Z,20.30
2018-06-24T14:23:53.823Z,20.22
2018-06-24T14:26:22.535Z,20.00
2018-06-24T14:28:51.378Z,19.27
2018-06-24T14:31:20.079Z,19.44
2018-06-24T14:33:49.004Z,19.62
2018-06-24T14:36:17.853Z,19.29
2018-06-24T14:38:46.650Z,19.66
2018-06-24T14:41:15.400Z,19.43
2018-06-24T14:43:44.413Z,19.80
2018-06-24T14:46:15.670Z,19.46
2018-06-24T14:48:44.623Z,19.36
2018-06-24T14:51:13.331Z,19.05
2018-06-24T14:53:42.272Z,18.47
2018-06-24T14:56:11.124Z,18.58
2018-06-24T14:58:40.743Z,19.08
2018-06-24T15:01:11.609Z,19.21
2018-06-24T15:03:40.421Z,19.19
2018-06-24T15:06:09.824Z,19.50
2018-06-24T15:08:39.112Z,19.92
2018-06-24T15:11:12.418Z,19.92
2018-06-24T15:13:47.316Z,20.08
2018-06-24T15:16:16.056Z,20.19
2018-06-24T15:18:45.340Z,20.39
2018-06-24T15:21:15.384Z,20.41
2018-06-24T15:23:48.760Z,19.56
2018-06-24T15:26:17.640Z,19.54
2018-06-24T15:28:51.720Z,19.68
2018-06-24T15:31:20.531Z,19.30
2018-06-24T15:33:51.433Z,19.21
2018-06-24T15:36:27.608Z,18.91
2018-06-24T15:38:56.305Z,18.68
2018-06-24T15:41:24.980Z,18.86
2018-06-24T15:43:53.627Z,18.89
2018-06-24T15:46:22.594Z,18.90
2018-06-24T15:48:52.672Z,18.59
2018-06-24T15:51:21.568Z,18.72
2018-06-24T15:53:53.377Z,19.13
2018-06-24T15:56:22.239Z,19.21
2018-06-24T15:58:51.436Z,19.19
2018-06-24T16:01:20.196Z,16.05
2018-06-24T16:03:48.894Z,18.93
2018-06-24T16:06:17.647Z,18.63
2018-06-24T16:08:46.360Z,18.72
2018-06-24T16:11:15.240Z,19.02
2018-06-24T16:13:43.893Z,18.88
2018-06-24T16:16:12.528Z,19.01
2018-06-24T16:18:41.273Z,18.95
2018-06-24T16:21:10.269Z,18.92
2018-06-24T16:23:38.885Z,18.88
2018-06-24T16:26:09.688Z,19.04
2018-06-24T16:28:44.896Z,19.04
2018-06-24T16:31:13.791Z,19.03
2018-06-24T16:33:50.142Z,19.12
